createdAt,value
2018-03-24T00:01:03.181Z,96913.25
2018-03-24T00:03:31.433Z,96908.63
2018-03-24T00:05:59.697Z,96909.92
2018-03-24T00:08:27.953Z,96910.35
2018-03-24T00:10:56.207Z,96906.58
2018-03-24T00:13:24.454Z,96901.56
2018-03-24T00:15:53.483Z,96904.02
2018-03-24T00:18:21.737Z,96900.28
2018-03-24T00:20:50.798Z,96894.05
2018-03-24T00:23:19.049Z,96897.41
2018-03-24T00:25:47.310Z,96894.05
2018-03-24T00:28:15.558Z,96895.70
2018-03-24T00:30:43.812Z,96896.97
2018-03-24T00:33:12.830Z,96893.61
2018-03-24T00:35:41.098Z,96899.41
2018-03-24T00:38:10.109Z,96899.38
2018-03-24T00:40:38.354Z,96895.62
2018-03-24T00:43:07.380Z,96895.61
2018-03-24T00:45:35.625Z,96896.47
2018-03-24T00:48:04.647Z,96894.34
2018-03-24T00:50:32.889Z,96892.67
2018-03-24T00:53:01.910Z,96880.47
2018-03-24T00:55:30.161Z,96884.70
2018-03-24T00:57:59.181Z,96883.02
2018-03-24T01:00:27.435Z,96875.58
2018-03-24T01:02:56.465Z,96874.74
2018-03-24T01:05:24.709Z,96874.78
2018-03-24T01:07:52.970Z,96872.66
2018-03-24T01:10:21.978Z,96865.16
2018-03-24T01:12:50.229Z,96858.55
2018-03-24T01:15:19.246Z,96861.05
2018-03-24T01:17:47.502Z,96858.53
2018-03-24T01:20:16.520Z,96858.45
2018-03-24T01:22:44.798Z,96854.28
2018-03-24T01:25:13.052Z,96855.54
2018-03-24T01:27:42.070Z,96851.34
2018-03-24T01:30:10.333Z,96855.94
2018-03-24T01:32:38.589Z,96853.77
2018-03-24T01:35:07.616Z,96848.84
2018-03-24T01:37:35.865Z,96837.16
2018-03-24T01:40:04.890Z,96838.78
2018-03-24T01:42:33.138Z,96835.44
2018-03-24T01:45:02.175Z,96837.58
2018-03-24T01:47:30.430Z,96836.74
2018-03-24T01:49:58.689Z,96835.94
2018-03-24T01:52:26.942Z,96834.25
2018-03-24T01:54:55.969Z,96832.56
2018-03-24T01:57:24.225Z,96829.63
2018-03-24T01:59:53.241Z,96833.41
2018-03-24T02:02:21.494Z,96831.72
2018-03-24T02:04:50.509Z,96830.81
2018-03-24T02:07:18.762Z,96825.83
2018-03-24T02:09:47.791Z,96823.28
2018-03-24T02:12:16.038Z,96817.92
2018-03-24T02:14:45.063Z,96818.30
2018-03-24T02:17:13.322Z,96818.28
2018-03-24T02:19:41.564Z,96812.42
2018-03-24T02:22:10.590Z,96810.70
2018-03-24T02:24:44.270Z,96813.23
2018-03-24T02:27:13.297Z,96812.84
2018-03-24T02:29:41.546Z,96814.09
2018-03-24T02:32:10.572Z,96807.00
2018-03-24T02:34:38.810Z,96811.16
2018-03-24T02:37:07.839Z,96809.95
2018-03-24T02:39:36.085Z,96805.38
2018-03-24T02:42:05.102Z,96809.92
2018-03-24T02:44:33.353Z,96806.61
2018-03-24T02:47:01.625Z,96804.50
2018-03-24T02:49:30.639Z,96810.68
2018-03-24T02:51:58.900Z,96809.44
2018-03-24T02:54:27.906Z,96808.61
2018-03-24T02:56:56.166Z,96805.33
2018-03-24T02:59:25.186Z,96806.16
2018-03-24T03:01:53.449Z,96807.44
2018-03-24T03:04:21.698Z,96806.13
2018-03-24T03:06:49.981Z,96808.61
2018-03-24T03:09:18.991Z,96796.96
2018-03-24T03:11:47.243Z,96795.30
2018-03-24T03:14:16.266Z,96797.76
2018-03-24T03:16:44.517Z,96792.66
2018-03-24T03:19:13.533Z,96790.56
2018-03-24T03:21:53.685Z,96786.37
2018-03-24T03:24:21.944Z,96795.50
2018-03-24T03:26:50.958Z,96785.05
2018-03-24T03:29:19.216Z,96787.08
2018-03-24T03:34:47.746Z,96784.57
2018-03-24T03:37:16.002Z,96783.67
2018-03-24T03:39:44.256Z,96781.58
2018-03-24T03:42:13.281Z,96777.41
2018-03-24T03:44:41.534Z,96778.63
2018-03-24T03:47:10.550Z,96778.19
2018-03-24T03:49:38.810Z,96783.64
2018-03-24T03:52:07.061Z,96782.34
2018-03-24T03:54:36.085Z,96784.42
2018-03-24T03:57:04.336Z,96780.62
2018-03-24T03:59:33.354Z,96780.55
2018-03-24T04:02:01.610Z,96784.62
2018-03-24T04:04:30.625Z,96785.37
2018-03-24T04:06:58.881Z,96787.84
2018-03-24T04:09:27.902Z,96781.12
2018-03-24T04:11:56.153Z,96776.07
2018-03-24T04:14:25.197Z,96782.73
2018-03-24T04:16:53.427Z,96777.17
2018-03-24T04:19:21.677Z,96775.04
2018-03-24T04:21:49.985Z,96778.78
2018-03-24T04:24:19.005Z,96778.72
2018-03-24T04:26:47.261Z,96779.97
2018-03-24T04:29:15.498Z,96774.08
2018-03-24T04:31:44.524Z,96771.20
2018-03-24T04:34:12.777Z,96769.12
2018-03-24T04:36:41.807Z,96767.81
2018-03-24T04:39:10.053Z,96769.89
2018-03-24T04:41:39.077Z,96773.63
2018-03-24T04:44:07.337Z,96776.48
2018-03-24T04:46:35.586Z,96771.39
2018-03-24T04:49:04.598Z,96776.86
2018-03-24T04:51:32.856Z,96768.89
2018-03-24T04:54:01.879Z,96772.19
2018-03-24T04:56:30.129Z,96767.62
2018-03-24T04:58:59.146Z,96767.58
2018-03-24T05:01:27.393Z,96767.62
2018-03-24T05:03:56.442Z,96763.36
2018-03-24T05:06:24.669Z,96762.94
2018-03-24T05:08:53.686Z,96762.88
2018-03-24T05:11:21.942Z,96761.20
2018-03-24T05:13:50.962Z,96763.28
2018-03-24T05:16:19.211Z,96761.55
2018-03-24T05:18:48.226Z,96767.00
2018-03-24T05:21:16.481Z,96766.16
2018-03-24T05:23:45.497Z,96771.61
2018-03-24T05:26:13.766Z,96769.97
2018-03-24T05:28:42.770Z,96772.85
2018-03-24T05:31:11.027Z,96774.48
2018-03-24T05:33:39.281Z,96776.98
2018-03-24T05:36:07.536Z,96781.97
2018-03-24T05:38:35.785Z,96779.02
2018-03-24T05:41:04.049Z,96780.75
2018-03-24T05:43:32.298Z,96786.13
2018-03-24T05:46:00.540Z,96781.97
2018-03-24T05:48:28.822Z,96789.52
2018-03-24T05:50:57.052Z,96788.83
2018-03-24T05:53:25.302Z,96790.42
2018-03-24T05:55:53.550Z,96789.56
2018-03-24T05:58:21.811Z,96794.72
2018-03-24T06:00:50.060Z,96788.38
2018-03-24T06:03:18.316Z,96790.50
2018-03-24T06:05:46.563Z,96788.90
2018-03-24T06:08:15.596Z,96792.27
2018-03-24T06:10:43.846Z,96793.58
2018-03-24T06:13:12.105Z,96790.25
2018-03-24T06:15:41.118Z,96791.56
2018-03-24T06:18:09.373Z,96793.64
2018-03-24T06:20:38.395Z,96789.12
2018-03-24T06:23:06.646Z,96787.43
2018-03-24T06:25:35.662Z,96792.42
2018-03-24T06:28:03.917Z,96793.32
2018-03-24T06:30:45.610Z,96785.92
2018-03-24T06:33:14.633Z,96785.53
2018-03-24T06:35:42.881Z,96784.81
2018-03-24T06:38:11.902Z,96780.27
2018-03-24T06:40:40.162Z,96791.53
2018-03-24T06:43:08.422Z,96788.56
2018-03-24T06:45:37.437Z,96791.51
2018-03-24T06:48:05.697Z,96789.89
2018-03-24T06:50:33.946Z,96786.65
2018-03-24T06:53:02.206Z,96792.14
2018-03-24T06:55:30.462Z,96790.53
2018-03-24T06:57:58.724Z,96790.20
2018-03-24T07:00:26.975Z,96788.19
2018-03-24T07:02:55.232Z,96786.48
2018-03-24T07:05:23.488Z,96791.16
2018-03-24T07:07:51.738Z,96788.72
2018-03-24T07:10:20.000Z,96789.54
2018-03-24T07:12:48.245Z,96795.04
2018-03-24T07:15:17.263Z,96793.38
2018-03-24T07:17:45.512Z,96795.50
2018-03-24T07:20:14.530Z,96787.64
2018-03-24T07:22:42.782Z,96796.34
2018-03-24T07:25:11.807Z,96793.56
2018-03-24T07:27:40.057Z,96794.79
2018-03-24T07:30:08.333Z,96796.97
2018-03-24T07:32:37.340Z,96805.30
2018-03-24T07:35:05.590Z,96801.22
2018-03-24T07:37:34.597Z,96806.72
2018-03-24T07:40:02.868Z,96810.52
2018-03-24T07:42:31.877Z,96802.66
2018-03-24T07:45:00.138Z,96809.34
2018-03-24T07:47:28.387Z,96811.41
2018-03-24T07:49:56.650Z,96811.06
2018-03-24T07:52:24.899Z,96813.54
2018-03-24T07:54:53.164Z,96811.09
2018-03-24T07:57:21.409Z,96811.97
2018-03-24T07:59:50.422Z,96814.13
2018-03-24T08:02:18.681Z,96806.63
2018-03-24T08:04:47.697Z,96802.88
2018-03-24T08:07:15.952Z,96805.38
2018-03-24T08:09:44.205Z,96807.48
2018-03-24T08:12:13.227Z,96810.41
2018-03-24T08:14:41.472Z,96814.16
2018-03-24T08:17:10.497Z,96810.80
2018-03-24T08:19:38.750Z,96811.61
2018-03-24T08:22:07.779Z,96819.98
2018-03-24T08:24:36.030Z,96816.27
2018-03-24T08:27:05.047Z,96817.41
2018-03-24T08:29:33.294Z,96814.02
2018-03-24T08:32:02.319Z,96815.27
2018-03-24T08:34:30.566Z,96814.78
2018-03-24T08:36:59.580Z,96816.35
2018-03-24T08:39:27.836Z,96818.98
2018-03-24T08:41:56.845Z,96818.91
2018-03-24T08:44:25.088Z,96810.48
2018-03-24T08:46:53.338Z,96812.55
2018-03-24T08:49:21.581Z,96819.56
2018-03-24T08:51:49.834Z,96813.39
2018-03-24T08:54:18.846Z,96815.53
2018-03-24T08:56:47.109Z,96816.69
2018-03-24T08:59:16.115Z,96818.66
2018-03-24T09:01:44.376Z,96815.20
2018-03-24T09:04:13.382Z,96818.80
2018-03-24T09:06:41.646Z,96822.19
2018-03-24T09:09:09.894Z,96819.36
2018-03-24T09:11:38.139Z,96823.70
2018-03-24T09:14:06.396Z,96823.16
2018-03-24T09:16:34.642Z,96823.15
2018-03-24T09:19:03.664Z,96822.80
2018-03-24T09:21:31.902Z,96825.45
2018-03-24T09:24:00.917Z,96821.36
2018-03-24T09:26:29.162Z,96825.96
2018-03-24T09:28:58.183Z,96821.48
2018-03-24T09:31:26.422Z,96828.70
2018-03-24T09:33:54.675Z,96820.72
2018-03-24T09:36:22.913Z,96823.06
2018-03-24T09:38:51.166Z,96824.72
2018-03-24T09:41:20.186Z,96831.34
2018-03-24T09:43:48.441Z,96835.05
2018-03-24T09:46:17.449Z,96827.30
2018-03-24T09:48:45.690Z,96835.95
2018-03-24T09:51:13.929Z,96827.38
2018-03-24T09:53:42.178Z,96832.28
2018-03-24T09:56:10.426Z,96832.88
2018-03-24T09:58:39.442Z,96836.89
2018-03-24T10:01:07.690Z,96836.64
2018-03-24T10:03:36.726Z,96834.76
2018-03-24T10:06:04.956Z,96839.70
2018-03-24T10:08:33.977Z,96837.13
2018-03-24T10:11:02.285Z,96835.78
2018-03-24T10:13:31.242Z,96831.77
2018-03-24T10:16:00.249Z,96835.06
2018-03-24T10:18:28.494Z,96824.64
2018-03-24T10:24:27.637Z,96831.57
2018-03-24T10:26:55.881Z,96825.73
2018-03-24T10:29:24.906Z,96823.45
2018-03-24T10:31:53.153Z,96818.30
2018-03-24T10:34:22.171Z,96812.06
2018-03-24T10:36:50.413Z,96814.37
2018-03-24T10:39:19.428Z,96813.11
2018-03-24T10:41:48.448Z,96824.55
2018-03-24T10:44:16.685Z,96818.27
2018-03-24T10:46:45.708Z,96814.09
2018-03-24T10:49:13.955Z,96810.95
2018-03-24T10:51:42.973Z,96816.61
2018-03-24T10:54:11.214Z,96828.83
2018-03-24T10:56:40.246Z,96824.30
2018-03-24T10:59:08.499Z,96818.27
2018-03-24T11:01:38.250Z,96813.86
2018-03-24T11:04:06.508Z,96813.50
2018-03-24T11:06:34.754Z,96810.30
2018-03-24T11:09:03.874Z,96815.03
2018-03-24T11:11:32.156Z,96819.80
2018-03-24T11:14:00.436Z,96827.89
2018-03-24T11:16:28.690Z,96810.22
2018-03-24T11:18:56.955Z,96816.29
2018-03-24T11:21:25.979Z,96822.55
2018-03-24T11:23:54.271Z,96812.67
2018-03-24T11:26:22.529Z,96820.73
2018-03-24T11:28:50.799Z,96809.79
2018-03-24T11:31:19.053Z,96809.22
2018-03-24T11:33:48.074Z,96806.48
2018-03-24T11:36:16.316Z,96803.62
2018-03-24T11:38:45.331Z,96802.50
2018-03-24T11:41:13.568Z,96806.34
2018-03-24T11:43:41.815Z,96807.00
2018-03-24T11:46:10.062Z,96799.91
2018-03-24T11:48:38.318Z,96795.27
2018-03-24T11:51:07.336Z,96804.15
2018-03-24T11:53:47.350Z,96793.86
2018-03-24T11:56:15.638Z,96798.17
2018-03-24T11:58:43.857Z,96803.86
2018-03-24T12:01:12.100Z,96808.69
2018-03-24T12:03:40.361Z,96798.98
2018-03-24T12:06:09.377Z,96801.09
2018-03-24T12:08:37.629Z,96800.65
2018-03-24T12:11:06.647Z,96803.20
2018-03-24T12:13:34.901Z,96803.06
2018-03-24T12:16:03.905Z,96810.11
2018-03-24T12:18:32.165Z,96802.33
2018-03-24T12:21:01.174Z,96804.95
2018-03-24T12:23:29.419Z,96800.84
2018-03-24T12:25:57.665Z,96799.87
2018-03-24T12:28:25.917Z,96810.74
2018-03-24T12:30:54.164Z,96804.23
2018-03-24T12:33:23.172Z,96808.82
2018-03-24T12:35:51.502Z,96802.69
2018-03-24T12:38:19.753Z,96797.44
2018-03-24T12:40:47.999Z,96789.66
2018-03-24T12:43:16.244Z,96803.07
2018-03-24T12:45:44.493Z,96797.73
2018-03-24T12:48:12.743Z,96800.63
2018-03-24T12:50:40.987Z,96801.06
2018-03-24T12:53:10.003Z,96793.86
2018-03-24T12:55:38.251Z,96794.85
2018-03-24T12:58:07.261Z,96786.69
2018-03-24T13:00:35.514Z,96790.95
2018-03-24T13:03:04.524Z,96794.11
2018-03-24T13:05:32.783Z,96791.87
2018-03-24T13:08:01.789Z,96795.95
2018-03-24T13:10:30.043Z,96793.72
2018-03-24T13:12:58.295Z,96793.53
2018-03-24T13:15:26.554Z,96783.52
2018-03-24T13:17:54.797Z,96777.48
2018-03-24T13:20:23.093Z,96772.78
2018-03-24T13:22:51.337Z,96771.95
2018-03-24T13:25:20.360Z,96783.28
2018-03-24T13:27:48.675Z,96791.66
2018-03-24T13:30:16.923Z,96788.08
2018-03-24T13:32:45.174Z,96792.68
2018-03-24T13:35:13.424Z,96795.80
2018-03-24T13:37:42.452Z,96788.46
2018-03-24T13:40:10.691Z,96788.52
2018-03-24T13:42:39.709Z,96800.39
2018-03-24T13:45:07.950Z,96799.79
2018-03-24T13:47:36.198Z,96799.44
2018-03-24T13:50:04.440Z,96800.72
2018-03-24T13:52:32.691Z,96804.34
2018-03-24T13:55:01.715Z,96806.33
2018-03-24T13:57:29.973Z,96806.79
2018-03-24T13:59:58.212Z,96801.77
2018-03-24T14:02:26.464Z,96803.54
2018-03-24T14:04:54.707Z,96794.22
2018-03-24T14:07:22.958Z,96801.55
2018-03-24T14:09:51.974Z,96788.23
2018-03-24T14:12:20.226Z,96789.95
2018-03-24T14:14:49.238Z,96787.98
2018-03-24T14:17:17.493Z,96785.86
2018-03-24T14:19:46.505Z,96777.45
2018-03-24T14:22:14.766Z,96786.75
2018-03-24T14:24:43.777Z,96783.09
2018-03-24T14:27:12.058Z,96778.33
2018-03-24T14:29:40.306Z,96778.16
2018-03-24T14:32:09.326Z,96781.11
2018-03-24T14:34:37.589Z,96788.20
2018-03-24T14:37:06.593Z,96786.27
2018-03-24T14:39:34.846Z,96789.74
2018-03-24T14:42:03.861Z,96786.45
2018-03-24T14:44:32.114Z,96783.28
2018-03-24T14:47:01.130Z,96782.75
2018-03-24T14:49:29.385Z,96783.87
2018-03-24T14:51:58.389Z,96786.45
2018-03-24T14:54:26.663Z,96781.91
2018-03-24T14:56:55.662Z,96779.86
2018-03-24T14:59:23.922Z,96780.86
2018-03-24T15:01:52.937Z,96777.00
2018-03-24T15:04:21.196Z,96772.41
2018-03-24T15:06:50.209Z,96776.39
2018-03-24T15:09:18.471Z,96763.07
2018-03-24T15:11:46.718Z,96764.70
2018-03-24T15:14:14.974Z,96771.22
2018-03-24T15:16:43.227Z,96769.34
2018-03-24T15:19:11.490Z,96765.28
2018-03-24T15:21:39.736Z,96765.06
2018-03-24T15:24:09.019Z,96765.72
2018-03-24T15:26:37.270Z,96764.92
2018-03-24T15:29:23.266Z,96768.16
2018-03-24T15:32:09.270Z,96775.02
2018-03-24T15:34:55.401Z,96779.71
2018-03-24T15:37:23.649Z,96779.29
2018-03-24T15:39:52.674Z,96780.65
2018-03-24T15:42:20.916Z,96778.26
2018-03-24T15:44:49.943Z,96779.42
2018-03-24T15:47:18.194Z,96784.77
2018-03-24T15:49:47.216Z,96779.68
2018-03-24T15:52:15.461Z,96776.42
2018-03-24T15:54:44.492Z,96780.53
2018-03-24T15:57:12.736Z,96778.23
2018-03-24T15:59:41.759Z,96782.60
2018-03-24T16:02:10.006Z,96784.55
2018-03-24T16:04:39.021Z,96782.29
2018-03-24T16:07:07.273Z,96785.66
2018-03-24T16:09:36.293Z,96790.29
2018-03-24T16:12:04.545Z,96788.41
2018-03-24T16:14:33.563Z,96790.44
2018-03-24T16:17:01.813Z,96790.56
2018-03-24T16:19:30.834Z,96791.22
2018-03-24T16:21:59.089Z,96791.38
2018-03-24T16:24:28.102Z,96793.45
2018-03-24T16:26:56.362Z,96797.16
2018-03-24T16:29:25.375Z,96793.87
2018-03-24T16:31:53.642Z,96795.27
2018-03-24T16:34:21.898Z,96795.80
2018-03-24T16:36:50.914Z,96804.93
2018-03-24T16:39:19.177Z,96797.74
2018-03-24T16:41:48.177Z,96801.80
2018-03-24T16:44:16.422Z,96801.72
2018-03-24T16:46:45.438Z,96808.01
2018-03-24T16:49:13.687Z,96804.92
2018-03-24T16:51:41.968Z,96808.31
2018-03-24T16:54:10.974Z,96803.89
2018-03-24T16:56:39.982Z,96805.09
2018-03-24T16:59:08.229Z,96805.44
2018-03-24T17:01:37.238Z,96810.07
2018-03-24T17:04:05.486Z,96818.23
2018-03-24T17:06:33.729Z,96817.55
2018-03-24T17:09:01.990Z,96809.98
2018-03-24T17:11:30.231Z,96812.52
2018-03-24T17:13:59.253Z,96817.31
2018-03-24T17:16:27.493Z,96815.80
2018-03-24T17:18:55.739Z,96819.11
2018-03-24T17:21:23.979Z,96822.68
2018-03-24T17:23:52.221Z,96821.02
2018-03-24T17:26:21.237Z,96825.23
2018-03-24T17:28:49.484Z,96824.92
2018-03-24T17:31:18.500Z,96825.51
2018-03-24T17:33:46.745Z,96828.14
2018-03-24T17:36:15.001Z,96824.44
2018-03-24T17:38:43.272Z,96827.14
2018-03-24T17:41:11.514Z,96830.61
2018-03-24T17:43:39.773Z,96831.96
2018-03-24T17:46:08.020Z,96825.00
2018-03-24T17:48:36.277Z,96829.69
2018-03-24T17:51:04.518Z,96826.42
2018-03-24T17:53:32.754Z,96823.58
2018-03-24T17:56:01.853Z,96825.33
2018-03-24T17:58:30.862Z,96834.64
2018-03-24T18:00:59.106Z,96830.53
2018-03-24T18:03:27.353Z,96836.02
2018-03-24T18:05:55.601Z,96840.27
2018-03-24T18:08:23.848Z,96838.24
2018-03-24T18:10:52.869Z,96840.81
2018-03-24T18:13:21.148Z,96845.48
2018-03-24T18:15:50.134Z,96848.08
2018-03-24T18:18:18.372Z,96852.36
2018-03-24T18:20:46.629Z,96849.45
2018-03-24T18:23:14.880Z,96852.78
2018-03-24T18:25:43.129Z,96851.50
2018-03-24T18:28:11.389Z,96856.16
2018-03-24T18:30:39.631Z,96857.41
2018-03-24T18:33:07.874Z,96864.53
2018-03-24T18:35:36.128Z,96865.81
2018-03-24T18:38:04.375Z,96866.24
2018-03-24T18:40:32.629Z,96873.39
2018-03-24T18:43:00.875Z,96875.47
2018-03-24T18:45:29.124Z,96877.20
2018-03-24T18:47:58.138Z,96879.30
2018-03-24T18:50:26.386Z,96877.23
2018-03-24T18:52:55.402Z,96878.52
2018-03-24T18:55:23.641Z,96873.92
2018-03-24T18:57:52.661Z,96878.98
2018-03-24T19:00:20.949Z,96874.83
2018-03-24T19:02:49.938Z,96883.61
2018-03-24T19:05:18.190Z,96889.88
2018-03-24T19:07:47.206Z,96892.36
2018-03-24T19:10:15.462Z,96890.72
2018-03-24T19:12:44.479Z,96893.22
2018-03-24T19:15:12.722Z,96895.75
2018-03-24T19:17:41.740Z,96896.59
2018-03-24T19:20:10.020Z,96896.12
2018-03-24T19:22:38.280Z,96896.54
2018-03-24T19:25:07.296Z,96894.03
2018-03-24T19:27:35.546Z,96898.62
2018-03-24T19:30:04.563Z,96896.52
2018-03-24T19:32:32.822Z,96899.43
2018-03-24T19:35:01.082Z,96902.36
2018-03-24T19:37:29.353Z,96904.05
2018-03-24T19:39:57.586Z,96910.36
2018-03-24T19:42:25.825Z,96907.05
2018-03-24T19:44:54.082Z,96906.62
2018-03-24T19:47:23.093Z,96908.71
2018-03-24T19:49:51.342Z,96908.30
2018-03-24T19:52:20.703Z,96908.28
2018-03-24T19:54:48.958Z,96902.02
2018-03-24T19:57:17.201Z,96913.73
2018-03-24T19:59:46.221Z,96905.36
2018-03-24T20:02:14.472Z,96915.00
2018-03-24T20:04:43.503Z,96920.02
2018-03-24T20:07:11.742Z,96921.27
2018-03-24T20:09:40.766Z,96926.67
2018-03-24T20:12:09.081Z,96925.40
2018-03-24T20:14:37.277Z,96923.31
2018-03-24T20:17:05.526Z,96924.12
2018-03-24T20:19:33.777Z,96915.72
2018-03-24T20:22:02.022Z,96924.02
2018-03-24T20:24:30.278Z,96920.67
2018-03-24T20:26:58.525Z,96924.86
2018-03-24T20:29:26.785Z,96928.23
2018-03-24T20:31:55.036Z,96928.26
2018-03-24T20:34:23.301Z,96926.56
2018-03-24T20:36:51.556Z,96923.61
2018-03-24T20:39:19.794Z,96924.44
2018-03-24T20:41:48.054Z,96925.65
2018-03-24T20:44:16.300Z,96924.80
2018-03-24T20:46:44.560Z,96920.62
2018-03-24T20:49:12.803Z,96921.41
2018-03-24T20:51:41.062Z,96920.99
2018-03-24T20:54:09.312Z,96925.14
2018-03-24T20:56:38.287Z,96925.48
2018-03-24T20:59:06.591Z,96923.34
2018-03-24T21:01:34.846Z,96930.06
2018-03-24T21:04:03.998Z,96934.29
2018-03-24T21:06:32.347Z,96930.56
2018-03-24T21:09:00.620Z,96930.19
2018-03-24T21:11:28.874Z,96937.67
2018-03-24T21:13:57.126Z,96943.42
2018-03-24T21:16:26.150Z,96947.91
2018-03-24T21:18:54.401Z,96953.67
2018-03-24T21:21:23.436Z,96948.64
2018-03-24T21:23:51.699Z,96943.95
2018-03-24T21:26:19.974Z,96946.86
2018-03-24T21:28:48.226Z,96948.96
2018-03-24T21:31:17.246Z,96946.52
2018-03-24T21:33:45.503Z,96946.00
2018-03-24T21:36:14.526Z,96942.20
2018-03-24T21:38:42.782Z,96953.91
2018-03-24T21:41:11.795Z,96947.64
2018-03-24T21:43:40.058Z,96944.69
2018-03-24T21:46:08.310Z,96947.14
2018-03-24T21:48:37.338Z,96945.03
2018-03-24T21:51:05.594Z,96951.33
2018-03-24T21:53:33.859Z,96955.08
2018-03-24T21:56:03.157Z,96956.00
2018-03-24T21:58:32.182Z,96956.12
2018-03-24T22:01:05.735Z,96961.16
2018-03-24T22:03:30.491Z,96958.75
2018-03-24T22:05:58.733Z,96954.62
2018-03-24T22:08:27.763Z,96956.30
2018-03-24T22:10:56.014Z,96948.75
2018-03-24T22:13:24.266Z,96953.77
2018-03-24T22:15:53.280Z,96952.02
2018-03-24T22:18:21.546Z,96954.89
2018-03-24T22:20:50.563Z,96952.37
2018-03-24T22:23:18.821Z,96953.64
2018-03-24T22:25:47.878Z,96957.75
2018-03-24T22:28:16.129Z,96955.25
2018-03-24T22:30:44.386Z,96950.22
2018-03-24T22:33:12.650Z,96953.14
2018-03-24T22:35:41.664Z,96956.82
2018-03-24T22:38:10.035Z,96960.19
2018-03-24T22:40:38.282Z,96958.89
2018-03-24T22:43:07.357Z,96962.17
2018-03-24T22:45:35.548Z,96963.06
2018-03-24T22:48:04.601Z,96960.09
2018-03-24T22:50:32.849Z,96966.39
2018-03-24T22:53:01.117Z,96959.68
2018-03-24T22:55:29.418Z,96956.70
2018-03-24T22:57:57.753Z,96961.72
2018-03-24T23:00:26.765Z,96959.60
2018-03-24T23:02:55.013Z,96960.41
2018-03-24T23:05:24.149Z,96958.64
2018-03-24T23:07:52.391Z,96960.59
2018-03-24T23:10:21.422Z,96959.22
2018-03-24T23:12:49.667Z,96961.67
2018-03-24T23:15:18.686Z,96958.69
2018-03-24T23:17:46.932Z,96961.94
2018-03-24T23:20:15.954Z,96960.23
2018-03-24T23:22:44.243Z,96960.27
2018-03-24T23:25:12.498Z,96963.16
2018-03-24T23:27:40.751Z,96965.17
2018-03-24T23:30:09.793Z,96968.19
2018-03-24T23:32:38.153Z,96965.23
2018-03-24T23:35:06.438Z,96967.25
2018-03-24T23:37:34.692Z,96966.80
2018-03-24T23:40:02.944Z,96965.20
2018-03-24T23:42:32.050Z,96959.44
2018-03-24T23:45:01.161Z,96962.77
2018-03-24T23:47:29.431Z,96959.78
2018-03-24T23:49:57.685Z,96967.70
2018-03-24T23:52:26.696Z,96965.97
2018-03-24T23:54:54.969Z,96966.77
2018-03-24T23:57:23.988Z,96972.53
2018-03-24T23:59:52.230Z,96970.88
